»·PEaware :: N48427 KPSP-KSAN

N48427 :: KPSP-KSAN

FLIGHT INFORMATION

Flight Status: Arrived
Operator: Privately registered:
United States
More flights under this callsign
Pilot: Carson T. (20437)
Aircraft: CESSNA 172 SKYHAWK
(C172)
More flights by this aircraft type
Origin: KPSP Palm Springs Intl
United States
Destination: KSAN San Diego Intl-Lindbergh
United States
More flights between these airports :: More routes between these airports
Route: JLI
File this flight plan on PilotEdge
Remarks:
Altitude:
(Current/Filed)
6,500ft
Speed:
(Current/Filed)
120kts
Departed: 02-Nov-18 11:29 AM
Arrived: 02-Nov-18 12:12 PM
Distance/Time
Traveled:
74nm/0:43
Distance/Time
To Go:
Arrived

Flight Plot

Page will automatically refresh every two minutes.

Flight plan parsing failed; only flown route is shown


Map Options




Map Legend


Flown Route
Filed Route
Departure Airport
Arrival Airport
Navaid (VOR, NDB)
Fix

Horizontal Profiles

Position Reports

Time Latitude Longitude Heading Altitude Ground
Speed
02-Nov-18 11:21 33.829009 -116.511502 270 430ft 0kts
02-Nov-18 11:22 33.829009 -116.511502 270 430ft 0kts
02-Nov-18 11:23 33.829009 -116.511502 270 430ft 0kts
02-Nov-18 11:24 33.829009 -116.511502 270 430ft 0kts
02-Nov-18 11:25 33.829009 -116.511502 270 430ft 0kts
02-Nov-18 11:26 33.829009 -116.511502 270 430ft 0kts
02-Nov-18 11:27 33.828696 -116.511211 110 429ft 11kts
02-Nov-18 11:28 33.826777 -116.507121 142 418ft 18kts
02-Nov-18 11:29 33.822442 -116.503252 141 406ft 19kts
02-Nov-18 11:30 33.818529 -116.499256 92 396ft 12kts
02-Nov-18 11:31 33.818525 -116.498957 89 395ft 0kts
02-Nov-18 11:32 33.823818 -116.502465 322 422ft 79kts
02-Nov-18 11:33 33.842299 -116.519212 305 1164ft 84kts
02-Nov-18 11:34 33.825031 -116.521823 138 1781ft 98kts
02-Nov-18 11:35 33.804726 -116.499491 130 2447ft 97kts
02-Nov-18 11:36 33.780826 -116.495994 194 3097ft 97kts
02-Nov-18 11:37 33.752422 -116.502602 189 3629ft 107kts
02-Nov-18 11:38 33.724122 -116.507161 187 4320ft 100kts
02-Nov-18 11:39 33.697100 -116.510863 187 5009ft 96kts
02-Nov-18 11:40 33.670033 -116.514403 187 5584ft 101kts
02-Nov-18 11:41 33.640749 -116.518211 187 6087ft 108kts
02-Nov-18 11:42 33.610412 -116.522120 187 6580ft 111kts
02-Nov-18 11:43 33.575539 -116.526882 192 6555ft 126kts
02-Nov-18 11:44 33.541858 -116.533930 189 6558ft 123kts
02-Nov-18 11:45 33.506528 -116.539191 187 6559ft 131kts
02-Nov-18 11:46 33.470113 -116.544001 187 6569ft 132kts
02-Nov-18 11:47 33.433599 -116.548672 187 6570ft 132kts
02-Nov-18 11:48 33.397086 -116.553302 187 6570ft 132kts
02-Nov-18 11:49 33.360647 -116.557912 188 6592ft 129kts
02-Nov-18 11:50 33.325389 -116.562357 189 6693ft 126kts
02-Nov-18 11:51 33.289943 -116.566847 189 6627ft 131kts
02-Nov-18 11:52 33.253974 -116.571385 190 6588ft 128kts
02-Nov-18 11:53 33.218778 -116.575822 190 6591ft 127kts
02-Nov-18 11:54 33.183708 -116.580239 190 6593ft 126kts
02-Nov-18 11:55 33.148706 -116.584653 190 6537ft 130kts
02-Nov-18 11:56 33.124270 -116.610926 234 6523ft 118kts
02-Nov-18 11:57 33.103575 -116.640966 234 6524ft 117kts
02-Nov-18 11:58 33.083061 -116.671289 234 6524ft 117kts
02-Nov-18 11:59 33.062469 -116.701866 234 6523ft 118kts
02-Nov-18 12:00 33.041890 -116.732454 234 6523ft 118kts
02-Nov-18 12:01 33.021322 -116.763282 234 6478ft 122kts
02-Nov-18 12:02 32.998808 -116.796887 232 5985ft 138kts
02-Nov-18 12:03 32.974055 -116.833634 231 5491ft 143kts
02-Nov-18 12:04 32.948997 -116.870804 231 4996ft 143kts
02-Nov-18 12:05 32.924040 -116.907783 232 4508ft 142kts
02-Nov-18 12:06 32.901253 -116.941484 232 4526ft 127kts
02-Nov-18 12:06 32.882941 -116.968562 232 4522ft 126kts
02-Nov-18 12:08 32.856425 -117.007795 232 4135ft 136kts
02-Nov-18 12:08 32.836463 -117.037280 232 3715ft 137kts
02-Nov-18 12:10 32.803092 -117.071729 220 3130ft 135kts
02-Nov-18 12:10 32.779596 -117.095020 220 2874ft 127kts
02-Nov-18 12:11 32.751480 -117.122774 220 2379ft 133kts
02-Nov-18 12:12 32.732348 -117.152867 236 1184ft 107kts
02-Nov-18 12:13 32.730351 -117.176679 287 213ft 63kts
02-Nov-18 12:14 32.734080 -117.187963 46 17ft 0kts
02-Nov-18 12:15 32.733875 -117.186194 106 17ft 17kts
02-Nov-18 12:16 32.732298 -117.179754 103 19ft 20kts
02-Nov-18 12:17 32.732282 -117.177395 195 20ft 0kts
02-Nov-18 12:18 32.732282 -117.177395 195 20ft 0kts
02-Nov-18 12:19 32.732282 -117.177395 195 20ft 0kts
02-Nov-18 12:20 32.732282 -117.177395 195 20ft 0kts
02-Nov-18 12:21 32.732282 -117.177395 195 20ft 0kts
02-Nov-18 12:22 32.732282 -117.177395 195 20ft 0kts
02-Nov-18 12:23 32.732282 -117.177395 195 20ft 0kts
02-Nov-18 12:24 32.732282 -117.177395 195 20ft 0kts
02-Nov-18 12:25 32.732282 -117.177395 195 20ft 0kts
02-Nov-18 12:26 32.732282 -117.177395 195 20ft 0kts
02-Nov-18 12:27 32.732282 -117.177395 195 20ft 0kts
02-Nov-18 12:28 32.732282 -117.177395 195 20ft 0kts
02-Nov-18 12:29 32.732282 -117.177395 195 20ft 0kts

Navigation Log

Ident Type
Flight plan parsing failed, navigation log unavailable